createdAt,value
2023-03-31T00:00:13.211Z,3.40
2023-03-31T00:05:18.442Z,1.70
2023-03-31T00:10:20.586Z,2.25
2023-03-31T00:15:22.725Z,1.92
2023-03-31T00:20:24.734Z,1.58
2023-03-31T00:25:27.084Z,2.28
2023-03-31T00:30:29.335Z,2.17
2023-03-31T00:35:39.416Z,4.00
2023-03-31T00:40:47.246Z,2.03
2023-03-31T00:45:49.429Z,2.53
2023-03-31T00:50:58.054Z,2.47
2023-03-31T00:56:07.722Z,3.70
2023-03-31T01:01:15.608Z,4.43
2023-03-31T01:06:20.042Z,3.25
2023-03-31T01:11:26.401Z,2.42
2023-03-31T01:16:29.759Z,2.08
2023-03-31T01:22:00.730Z,3.17
2023-03-31T01:27:17.847Z,2.35
2023-03-31T01:32:41.046Z,2.22
2023-03-31T01:38:20.517Z,3.58
2023-03-31T01:43:47.928Z,3.47
2023-03-31T01:49:06.012Z,1.88
2023-03-31T01:54:23.518Z,3.47
2023-03-31T01:59:58.238Z,2.63
2023-03-31T02:05:07.170Z,3.10
2023-03-31T02:10:12.687Z,2.80
2023-03-31T02:15:24.577Z,2.28
2023-03-31T02:20:29.683Z,3.85
2023-03-31T02:25:41.640Z,4.25
2023-03-31T02:31:25.907Z,2.67
2023-03-31T02:36:28.909Z,4.63
2023-03-31T02:41:31.183Z,2.70
2023-03-31T02:46:33.655Z,4.18
2023-03-31T02:51:36.384Z,2.45
2023-03-31T02:56:59.663Z,3.08
2023-03-31T03:02:31.446Z,4.22
2023-03-31T03:07:45.914Z,4.35
2023-03-31T03:12:50.637Z,2.80
2023-03-31T03:17:53.824Z,3.38
2023-03-31T03:22:56.128Z,3.17
2023-03-31T03:27:58.189Z,4.32
2023-03-31T03:33:00.730Z,4.47
2023-03-31T03:38:02.721Z,3.55
2023-03-31T03:43:04.778Z,4.63
2023-03-31T03:48:07.065Z,4.22
2023-03-31T03:53:09.300Z,3.47
2023-03-31T03:58:11.455Z,5.47
2023-03-31T04:03:14.836Z,5.40
2023-03-31T04:08:18.278Z,3.58
2023-03-31T04:13:20.791Z,4.63
2023-03-31T04:18:25.753Z,2.65
2023-03-31T04:23:27.794Z,2.08
2023-03-31T04:28:35.254Z,4.30
2023-03-31T04:33:40.408Z,3.58
2023-03-31T04:38:42.585Z,5.05
2023-03-31T04:43:44.631Z,3.03
2023-03-31T04:48:46.752Z,2.20
2023-03-31T04:53:48.945Z,3.78
2023-03-31T04:58:51.327Z,3.42
2023-03-31T05:03:53.536Z,2.35
2023-03-31T05:08:55.940Z,4.07
2023-03-31T05:13:57.975Z,3.72
2023-03-31T05:19:00.917Z,2.50
2023-03-31T05:24:03.222Z,3.00
2023-03-31T05:29:05.798Z,3.70
2023-03-31T05:34:08.141Z,3.15
2023-03-31T05:39:10.945Z,5.43
2023-03-31T05:44:13.318Z,4.93
2023-03-31T05:49:17.249Z,4.57
2023-03-31T06:04:24.716Z,3.95
2023-03-31T06:09:28.632Z,5.45
2023-03-31T06:19:32.576Z,4.20
2023-03-31T06:24:34.750Z,5.78
2023-03-31T06:29:36.955Z,5.13
2023-03-31T06:34:39.037Z,6.25
2023-03-31T06:39:41.134Z,3.55
2023-03-31T06:44:43.225Z,5.53
2023-03-31T06:49:45.412Z,4.22
2023-03-31T06:54:47.502Z,3.92
2023-03-31T06:59:49.598Z,5.75
2023-03-31T07:04:51.660Z,4.10
2023-03-31T07:09:56.377Z,3.75
2023-03-31T07:14:58.500Z,3.78
2023-03-31T07:20:00.562Z,5.40
2023-03-31T07:25:02.620Z,4.65
2023-03-31T07:30:10.148Z,3.67
2023-03-31T07:35:12.154Z,4.47
2023-03-31T07:40:18.423Z,3.35
2023-03-31T07:45:22.421Z,5.53
2023-03-31T07:50:25.206Z,4.85
2023-03-31T07:55:29.973Z,5.97
2023-03-31T08:00:32.409Z,5.50
2023-03-31T08:05:35.162Z,4.35
2023-03-31T08:10:37.508Z,4.97
2023-03-31T08:15:39.956Z,6.72
2023-03-31T08:20:42.043Z,3.50
2023-03-31T08:25:44.029Z,4.75
2023-03-31T08:30:46.546Z,5.70
2023-03-31T08:35:48.646Z,4.93
2023-03-31T08:40:50.767Z,7.35
2023-03-31T08:45:55.995Z,5.97
2023-03-31T08:51:14.544Z,3.10
2023-03-31T08:56:20.976Z,4.68
2023-03-31T09:01:35.883Z,3.55
2023-03-31T09:07:14.336Z,4.43
2023-03-31T09:12:57.883Z,4.70
2023-03-31T09:18:20.009Z,8.30
2023-03-31T09:28:43.113Z,7.32
2023-03-31T09:33:46.998Z,9.93
2023-03-31T09:43:52.065Z,6.53
2023-03-31T09:49:11.754Z,7.28
2023-03-31T09:54:18.970Z,6.78
2023-03-31T09:59:24.167Z,6.63
2023-03-31T10:04:30.225Z,7.22
2023-03-31T10:09:34.524Z,5.10
2023-03-31T10:14:50.118Z,6.30
2023-03-31T10:20:06.556Z,8.98
2023-03-31T10:25:23.430Z,4.28
2023-03-31T10:30:38.176Z,10.88
2023-03-31T10:35:41.070Z,8.68
2023-03-31T10:40:55.261Z,5.90
2023-03-31T10:46:00.787Z,6.75
2023-03-31T10:51:15.026Z,5.88
2023-03-31T10:56:49.392Z,6.07
2023-03-31T11:01:55.956Z,8.25
2023-03-31T11:07:17.779Z,5.93
2023-03-31T11:12:19.618Z,6.72
2023-03-31T11:17:33.426Z,7.88
2023-03-31T11:22:43.620Z,5.07
2023-03-31T11:28:03.880Z,5.75
2023-03-31T11:33:29.993Z,4.10
2023-03-31T11:39:00.333Z,8.88
2023-03-31T11:44:09.762Z,8.40
2023-03-31T11:49:30.413Z,5.40
2023-03-31T11:54:45.714Z,5.05
2023-03-31T11:59:56.321Z,6.78
2023-03-31T12:04:58.769Z,6.05
2023-03-31T12:10:06.108Z,6.90
2023-03-31T12:15:25.610Z,6.95
2023-03-31T12:20:32.879Z,8.77
2023-03-31T12:25:49.634Z,5.40
2023-03-31T12:30:53.721Z,5.95
2023-03-31T12:36:24.495Z,6.13
2023-03-31T12:41:45.151Z,6.88
2023-03-31T12:46:55.805Z,6.38
2023-03-31T12:52:00.748Z,10.30
2023-03-31T12:57:14.309Z,9.50
2023-03-31T13:02:16.459Z,6.28
2023-03-31T13:07:29.104Z,7.20
2023-03-31T13:12:33.354Z,7.05
2023-03-31T13:17:39.055Z,6.65
2023-03-31T13:22:44.490Z,7.00
2023-03-31T13:27:50.284Z,7.00
2023-03-31T13:33:05.860Z,6.13
2023-03-31T13:38:45.149Z,7.63
2023-03-31T13:44:13.467Z,5.55
2023-03-31T13:49:54.322Z,5.78
2023-03-31T13:55:06.860Z,7.28
2023-03-31T14:00:30.480Z,8.45
2023-03-31T14:05:43.727Z,8.05
2023-03-31T14:10:45.931Z,6.57
2023-03-31T14:15:51.958Z,6.22
2023-03-31T14:21:40.907Z,5.38
2023-03-31T14:27:04.488Z,7.35
2023-03-31T14:32:29.344Z,6.07
2023-03-31T14:37:32.225Z,5.03
2023-03-31T14:42:39.892Z,5.32
2023-03-31T14:47:41.944Z,4.50
2023-03-31T14:52:48.742Z,5.63
2023-03-31T14:57:52.584Z,4.95
2023-03-31T15:02:55.076Z,6.87
2023-03-31T15:07:59.198Z,4.95
2023-03-31T15:13:08.080Z,5.07
2023-03-31T15:18:13.940Z,5.45
2023-03-31T15:23:25.098Z,5.68
2023-03-31T15:28:32.566Z,4.20
2023-03-31T15:33:36.911Z,3.97
2023-03-31T15:38:39.248Z,5.60
2023-03-31T15:43:53.023Z,5.65
2023-03-31T15:48:56.314Z,4.32
2023-03-31T15:53:58.515Z,5.55
2023-03-31T15:59:05.594Z,6.50
2023-03-31T16:04:10.671Z,3.50
2023-03-31T16:09:24.640Z,4.97
2023-03-31T16:14:31.563Z,4.55
2023-03-31T16:19:45.504Z,4.60
2023-03-31T16:24:48.564Z,4.25
2023-03-31T16:29:50.952Z,3.83
2023-03-31T16:34:53.925Z,4.28
2023-03-31T16:39:56.975Z,3.05
2023-03-31T16:45:12.741Z,3.90
2023-03-31T16:50:16.820Z,3.85
2023-03-31T16:55:18.928Z,4.38
2023-03-31T17:00:21.185Z,5.10
2023-03-31T17:05:23.690Z,4.60
2023-03-31T17:10:25.924Z,4.38
2023-03-31T17:15:29.898Z,3.17
2023-03-31T17:20:31.957Z,4.10
2023-03-31T17:25:36.316Z,4.57
2023-03-31T17:30:39.793Z,4.05
2023-03-31T17:35:43.244Z,2.90
2023-03-31T17:40:45.789Z,2.70
2023-03-31T17:45:48.075Z,5.15
2023-03-31T17:50:50.296Z,3.60
2023-03-31T17:55:52.372Z,4.32
2023-03-31T18:00:54.528Z,4.03
2023-03-31T18:05:57.043Z,4.10
2023-03-31T18:10:59.465Z,4.60
2023-03-31T18:16:01.641Z,6.22
2023-03-31T18:21:08.966Z,3.17
2023-03-31T18:26:13.290Z,4.65
2023-03-31T18:31:15.705Z,4.50
2023-03-31T18:36:19.699Z,3.60
2023-03-31T18:41:23.269Z,2.75
2023-03-31T18:46:25.800Z,3.05
2023-03-31T18:51:28.089Z,3.55
2023-03-31T18:56:30.181Z,4.70
2023-03-31T19:01:40.424Z,2.70
2023-03-31T19:06:42.587Z,2.53
2023-03-31T19:11:44.698Z,3.47
2023-03-31T19:16:47.038Z,4.55
2023-03-31T19:21:49.668Z,4.35
2023-03-31T19:26:51.771Z,3.35
2023-03-31T19:31:54.060Z,3.30
2023-03-31T19:36:56.819Z,4.50
2023-03-31T19:41:58.781Z,3.55
2023-03-31T19:47:00.888Z,3.47
2023-03-31T19:52:04.086Z,3.47
2023-03-31T19:57:06.813Z,3.42
2023-03-31T20:02:12.939Z,3.85
2023-03-31T20:07:15.075Z,5.53
2023-03-31T20:12:17.270Z,3.53
2023-03-31T20:17:19.547Z,3.78
2023-03-31T20:22:21.939Z,5.82
2023-03-31T20:27:26.598Z,4.28
2023-03-31T20:32:28.835Z,3.00
2023-03-31T20:37:30.924Z,4.13
2023-03-31T20:42:32.932Z,3.25
2023-03-31T20:47:35.579Z,3.47
2023-03-31T20:52:37.844Z,3.50
2023-03-31T20:57:40.356Z,3.22
2023-03-31T21:02:43.204Z,4.53
2023-03-31T21:07:45.664Z,4.55
2023-03-31T21:12:47.728Z,3.42
2023-03-31T21:17:49.800Z,2.45
2023-03-31T21:22:51.827Z,4.68
2023-03-31T21:27:54.098Z,3.15
2023-03-31T21:32:56.239Z,3.47
2023-03-31T21:37:58.456Z,3.05
2023-03-31T21:43:00.951Z,3.60
2023-03-31T21:48:04.467Z,3.97
2023-03-31T21:53:09.457Z,3.40
2023-03-31T21:58:13.033Z,2.92
2023-03-31T22:03:26.459Z,3.53
2023-03-31T22:08:31.740Z,3.95
2023-03-31T22:13:34.618Z,2.97
2023-03-31T22:18:36.694Z,3.20
2023-03-31T22:23:38.744Z,3.33
2023-03-31T22:28:40.812Z,2.85
2023-03-31T22:33:42.829Z,2.95
2023-03-31T22:38:44.997Z,5.32
2023-03-31T22:43:47.229Z,3.83
2023-03-31T22:48:50.525Z,3.95
2023-03-31T22:53:54.184Z,3.92
2023-03-31T22:58:57.678Z,4.28
2023-03-31T23:04:00.963Z,5.93
2023-03-31T23:09:03.152Z,4.45
2023-03-31T23:14:05.281Z,5.10
2023-03-31T23:19:07.758Z,5.25
2023-03-31T23:24:10.985Z,5.45
2023-03-31T23:29:13.457Z,4.55
2023-03-31T23:34:15.764Z,3.78
2023-03-31T23:39:17.797Z,4.03
2023-03-31T23:44:19.994Z,6.90
2023-03-31T23:49:22.406Z,6.85
2023-03-31T23:54:24.618Z,5.82
2023-03-31T23:59:26.626Z,4.88
